createdAt,value
2019-01-28T00:01:41.519Z,5.30
2019-01-28T00:04:08.951Z,4.70
2019-01-28T00:06:36.411Z,5.20
2019-01-28T00:09:03.832Z,5.07
2019-01-28T00:11:31.280Z,4.77
2019-01-28T00:13:58.737Z,4.63
2019-01-28T00:16:26.167Z,4.47
2019-01-28T00:18:53.698Z,5.05
2019-01-28T00:21:21.158Z,5.10
2019-01-28T00:23:49.571Z,4.60
2019-01-28T00:26:17.937Z,4.93
2019-01-28T00:28:45.583Z,4.73
2019-01-28T00:31:13.502Z,4.70
2019-01-28T00:33:40.973Z,5.00
2019-01-28T00:36:08.436Z,4.70
2019-01-28T00:38:36.055Z,4.55
2019-01-28T00:41:03.527Z,5.00
2019-01-28T00:43:30.974Z,5.10
2019-01-28T00:45:59.696Z,3.67
2019-01-28T00:48:27.203Z,4.90
2019-01-28T00:50:54.621Z,5.00
2019-01-28T00:53:22.065Z,4.63
2019-01-28T00:55:49.497Z,4.20
2019-01-28T00:58:16.961Z,3.83
2019-01-28T01:00:44.431Z,4.80
2019-01-28T01:03:12.004Z,4.40
2019-01-28T01:05:39.479Z,4.97
2019-01-28T01:08:07.008Z,4.40
2019-01-28T01:10:34.662Z,4.33
2019-01-28T01:13:02.118Z,4.50
2019-01-28T01:15:29.570Z,4.60
2019-01-28T01:17:57.195Z,4.37
2019-01-28T01:20:25.480Z,4.30
2019-01-28T01:22:53.100Z,4.30
2019-01-28T01:25:20.745Z,4.23
2019-01-28T01:27:49.230Z,4.55
2019-01-28T01:30:16.717Z,3.77
2019-01-28T01:32:44.233Z,4.70
2019-01-28T01:35:11.740Z,3.93
2019-01-28T01:37:39.234Z,4.37
2019-01-28T01:40:06.649Z,4.13
2019-01-28T01:42:34.145Z,4.40
2019-01-28T01:45:01.691Z,3.90
2019-01-28T01:47:29.169Z,3.67
2019-01-28T01:49:56.607Z,3.80
2019-01-28T01:52:24.226Z,3.03
2019-01-28T01:54:51.681Z,2.45
2019-01-28T01:57:19.710Z,3.42
2019-01-28T01:59:47.176Z,3.60
2019-01-28T02:02:14.660Z,3.47
2019-01-28T02:04:42.100Z,2.67
2019-01-28T02:07:09.550Z,2.90
2019-01-28T02:09:37.992Z,2.60
2019-01-28T02:12:05.499Z,2.37
2019-01-28T02:14:33.191Z,2.20
2019-01-28T02:17:00.829Z,2.50
2019-01-28T02:19:28.305Z,2.53
2019-01-28T02:21:55.782Z,2.93
2019-01-28T02:24:23.299Z,2.70
2019-01-28T02:26:51.034Z,2.43
2019-01-28T02:29:18.497Z,2.40
2019-01-28T02:31:45.932Z,2.50
2019-01-28T02:34:13.378Z,2.27
2019-01-28T02:36:40.844Z,2.50
2019-01-28T02:39:08.351Z,2.40
2019-01-28T02:41:35.799Z,2.40
2019-01-28T02:44:03.273Z,2.40
2019-01-28T02:46:30.739Z,2.67
2019-01-28T02:48:58.178Z,2.22
2019-01-28T02:51:25.638Z,2.40
2019-01-28T02:53:53.093Z,2.50
2019-01-28T02:56:22.358Z,2.22
2019-01-28T02:58:50.930Z,2.40
2019-01-28T03:01:18.397Z,2.20
2019-01-28T03:03:45.849Z,2.40
2019-01-28T03:06:13.294Z,2.30
2019-01-28T03:08:40.768Z,2.40
2019-01-28T03:11:08.198Z,2.57
2019-01-28T03:13:35.655Z,2.50
2019-01-28T03:16:03.101Z,2.15
2019-01-28T03:18:30.596Z,2.50
2019-01-28T03:20:58.018Z,2.43
2019-01-28T03:23:25.460Z,2.63
2019-01-28T03:25:52.923Z,2.53
2019-01-28T03:28:21.393Z,2.40
2019-01-28T03:30:49.370Z,2.23
2019-01-28T03:33:16.815Z,2.50
2019-01-28T03:35:44.303Z,2.63
2019-01-28T03:38:11.783Z,2.60
2019-01-28T03:40:39.215Z,1.70
2019-01-28T03:43:06.694Z,2.67
2019-01-28T03:45:34.166Z,2.30
2019-01-28T03:48:01.662Z,2.10
2019-01-28T03:50:29.159Z,2.30
2019-01-28T03:52:56.610Z,2.70
2019-01-28T03:55:24.049Z,1.90
2019-01-28T03:57:51.865Z,2.00
2019-01-28T04:00:22.118Z,2.40
2019-01-28T04:02:49.563Z,2.57
2019-01-28T04:05:17.032Z,1.83
2019-01-28T04:07:44.486Z,2.10
2019-01-28T04:10:12.733Z,1.83
2019-01-28T04:12:40.169Z,1.93
2019-01-28T04:15:08.715Z,1.77
2019-01-28T04:17:36.171Z,1.63
2019-01-28T04:20:03.617Z,1.87
2019-01-28T04:22:31.397Z,1.75
2019-01-28T04:24:58.846Z,1.80
2019-01-28T04:27:26.276Z,1.60
2019-01-28T04:29:53.711Z,1.60
2019-01-28T04:32:21.219Z,1.70
2019-01-28T04:34:48.672Z,1.63
2019-01-28T04:37:16.704Z,2.00
2019-01-28T04:39:44.135Z,2.20
2019-01-28T04:42:11.625Z,2.00
2019-01-28T04:44:39.059Z,1.90
2019-01-28T04:47:06.476Z,2.35
2019-01-28T04:49:33.932Z,2.13
2019-01-28T04:52:01.393Z,2.33
2019-01-28T04:54:28.827Z,2.58
2019-01-28T04:56:56.264Z,2.58
2019-01-28T04:59:23.707Z,2.60
2019-01-28T05:01:51.162Z,2.00
2019-01-28T05:04:18.603Z,2.63
2019-01-28T05:06:46.939Z,2.70
2019-01-28T05:09:14.402Z,2.70
2019-01-28T05:11:41.855Z,3.00
2019-01-28T05:14:09.324Z,2.23
2019-01-28T05:16:36.757Z,2.90
2019-01-28T05:19:04.206Z,2.70
2019-01-28T05:21:31.715Z,2.00
2019-01-28T05:23:59.203Z,2.30
2019-01-28T05:26:26.628Z,2.20
2019-01-28T05:28:54.218Z,2.37
2019-01-28T05:31:21.646Z,2.37
2019-01-28T05:33:49.125Z,2.30
2019-01-28T05:36:16.538Z,1.53
2019-01-28T05:38:43.974Z,1.90
2019-01-28T05:41:11.441Z,1.90
2019-01-28T05:43:38.878Z,2.40
2019-01-28T05:46:06.359Z,2.12
2019-01-28T05:48:33.816Z,2.05
2019-01-28T05:51:01.250Z,2.63
2019-01-28T05:53:28.694Z,2.30
2019-01-28T05:55:56.133Z,2.50
2019-01-28T05:58:24.300Z,2.53
2019-01-28T06:00:51.770Z,2.75
2019-01-28T06:03:19.198Z,2.77
2019-01-28T06:05:46.687Z,2.70
2019-01-28T06:08:14.969Z,2.30
2019-01-28T06:10:44.861Z,2.73
2019-01-28T06:13:12.373Z,2.40
2019-01-28T06:15:39.811Z,2.40
2019-01-28T06:18:07.240Z,2.40
2019-01-28T06:20:34.685Z,2.80
2019-01-28T06:23:02.146Z,3.00
2019-01-28T06:25:29.579Z,2.60
2019-01-28T06:27:57.034Z,2.90
2019-01-28T06:30:25.330Z,2.30
2019-01-28T06:32:52.796Z,2.42
2019-01-28T06:35:20.218Z,2.53
2019-01-28T06:37:47.680Z,3.20
2019-01-28T06:40:25.136Z,3.10
2019-01-28T06:42:52.581Z,2.50
2019-01-28T06:45:20.057Z,3.03
2019-01-28T06:47:47.474Z,3.53
2019-01-28T06:50:15.909Z,2.53
2019-01-28T06:52:43.321Z,3.27
2019-01-28T06:55:10.781Z,3.03
2019-01-28T06:57:38.217Z,2.83
2019-01-28T07:00:25.154Z,2.70
2019-01-28T07:02:52.570Z,3.00
2019-01-28T07:05:20.014Z,2.83
2019-01-28T07:07:47.489Z,3.40
2019-01-28T07:10:14.922Z,3.00
2019-01-28T07:12:42.434Z,4.07
2019-01-28T07:15:09.877Z,4.53
2019-01-28T07:17:37.340Z,4.37
2019-01-28T07:20:04.798Z,4.80
2019-01-28T07:22:32.310Z,4.80
2019-01-28T07:24:59.805Z,5.70
2019-01-28T07:27:27.255Z,5.37
2019-01-28T07:29:54.698Z,4.80
2019-01-28T07:32:22.174Z,6.27
2019-01-28T07:34:49.645Z,6.33
2019-01-28T07:37:17.070Z,6.10
2019-01-28T07:39:44.578Z,5.10
2019-01-28T07:42:12.030Z,5.70
2019-01-28T07:44:39.461Z,5.78
2019-01-28T07:47:06.910Z,4.45
2019-01-28T07:49:34.363Z,6.03
2019-01-28T07:52:02.817Z,5.77
2019-01-28T07:54:30.371Z,4.20
2019-01-28T07:56:57.852Z,5.40
2019-01-28T07:59:25.284Z,4.87
2019-01-28T08:01:52.738Z,5.13
2019-01-28T08:04:20.175Z,5.40
2019-01-28T08:06:47.695Z,4.60
2019-01-28T08:09:15.149Z,4.50
2019-01-28T08:11:42.593Z,4.45
2019-01-28T08:14:10.029Z,4.37
2019-01-28T08:16:37.516Z,3.50
2019-01-28T08:19:04.949Z,3.67
2019-01-28T08:21:32.396Z,3.43
2019-01-28T08:23:59.855Z,3.50
2019-01-28T08:26:27.313Z,3.70
2019-01-28T08:28:54.751Z,3.28
2019-01-28T08:31:22.245Z,3.87
2019-01-28T08:33:49.655Z,3.83
2019-01-28T08:36:18.744Z,4.00
2019-01-28T08:38:46.914Z,3.70
2019-01-28T08:41:14.391Z,4.33
2019-01-28T08:43:41.846Z,4.53
2019-01-28T08:46:09.273Z,5.53
2019-01-28T08:48:36.716Z,4.63
2019-01-28T08:51:04.190Z,3.97
2019-01-28T08:53:31.634Z,4.10
2019-01-28T08:55:59.055Z,4.07
2019-01-28T08:58:27.552Z,3.60
2019-01-28T09:00:55.043Z,3.93
2019-01-28T09:03:22.492Z,4.03
2019-01-28T09:05:49.951Z,4.20
2019-01-28T09:08:17.371Z,4.87
2019-01-28T09:10:44.840Z,5.87
2019-01-28T09:13:12.297Z,5.12
2019-01-28T09:15:39.771Z,5.83
2019-01-28T09:18:07.256Z,7.17
2019-01-28T09:20:35.743Z,7.50
2019-01-28T09:23:03.284Z,7.53
2019-01-28T09:25:30.728Z,9.03
2019-01-28T09:27:58.190Z,6.60
2019-01-28T09:30:26.354Z,8.10
2019-01-28T09:32:53.775Z,5.93
2019-01-28T09:35:21.223Z,4.60
2019-01-28T09:37:48.675Z,5.00
2019-01-28T09:40:19.719Z,4.70
2019-01-28T09:42:47.158Z,4.20
2019-01-28T09:45:17.510Z,4.23
2019-01-28T09:47:44.926Z,3.50
2019-01-28T09:50:12.390Z,3.50
2019-01-28T09:52:39.830Z,2.80
2019-01-28T09:55:07.291Z,3.22
2019-01-28T09:57:34.760Z,1.73
2019-01-28T10:00:02.235Z,2.97
2019-01-28T10:02:29.685Z,2.60
2019-01-28T10:04:57.151Z,2.27
2019-01-28T10:07:24.643Z,2.63
2019-01-28T10:09:52.071Z,2.10
2019-01-28T10:12:21.757Z,2.53
2019-01-28T10:14:49.313Z,2.93
2019-01-28T10:17:16.795Z,2.13
2019-01-28T10:19:44.231Z,1.97
2019-01-28T10:22:11.665Z,3.27
2019-01-28T10:24:39.100Z,2.70
2019-01-28T10:27:06.563Z,3.20
2019-01-28T10:29:34.401Z,3.40
2019-01-28T10:32:01.920Z,2.80
2019-01-28T10:34:29.674Z,2.90
2019-01-28T10:36:57.224Z,2.77
2019-01-28T10:39:24.669Z,3.83
2019-01-28T10:41:52.121Z,2.50
2019-01-28T10:44:19.576Z,2.63
2019-01-28T10:46:47.029Z,2.60
2019-01-28T10:49:14.491Z,2.80
2019-01-28T10:51:41.939Z,3.35
2019-01-28T10:54:09.384Z,2.90
2019-01-28T10:56:36.850Z,2.53
2019-01-28T10:59:04.319Z,2.60
2019-01-28T11:01:31.771Z,2.50
2019-01-28T11:04:00.073Z,2.42
2019-01-28T11:06:27.510Z,2.23
2019-01-28T11:08:54.983Z,2.23
2019-01-28T11:11:22.440Z,2.40
2019-01-28T11:13:49.982Z,2.43
2019-01-28T11:16:17.423Z,2.03
2019-01-28T11:18:45.783Z,2.07
2019-01-28T11:21:13.375Z,2.70
2019-01-28T11:23:40.868Z,2.43
2019-01-28T11:26:08.317Z,2.50
2019-01-28T11:28:35.720Z,2.80
2019-01-28T11:31:03.285Z,2.93
2019-01-28T11:33:30.802Z,3.20
2019-01-28T11:36:05.136Z,3.20
2019-01-28T11:38:25.868Z,3.50
2019-01-28T11:40:54.013Z,3.30
2019-01-28T11:43:21.790Z,3.10
2019-01-28T11:45:50.001Z,2.90
2019-01-28T11:48:17.560Z,3.33
2019-01-28T11:50:44.882Z,3.63
2019-01-28T11:53:12.332Z,3.53
2019-01-28T11:55:39.787Z,3.77
2019-01-28T11:58:07.244Z,3.30
2019-01-28T12:00:53.395Z,3.40
2019-01-28T12:03:20.852Z,3.17
2019-01-28T12:05:48.293Z,3.10
2019-01-28T12:08:15.801Z,2.80
2019-01-28T12:10:43.257Z,2.72
2019-01-28T12:13:10.687Z,2.50
2019-01-28T12:15:38.116Z,2.13
2019-01-28T12:18:06.077Z,3.10
2019-01-28T12:20:32.983Z,2.60
2019-01-28T12:23:00.442Z,2.30
2019-01-28T12:25:27.877Z,3.03
2019-01-28T12:27:55.303Z,2.93
2019-01-28T12:30:24.288Z,2.93
2019-01-28T12:32:51.729Z,2.10
2019-01-28T12:35:19.167Z,2.65
2019-01-28T12:37:46.649Z,2.37
2019-01-28T12:40:14.874Z,2.70
2019-01-28T12:42:41.579Z,2.97
2019-01-28T12:45:09.780Z,2.13
2019-01-28T12:47:37.223Z,2.60
2019-01-28T12:50:06.220Z,2.77
2019-01-28T12:52:33.669Z,2.60
2019-01-28T12:55:01.135Z,2.57
2019-01-28T12:57:28.547Z,2.50
2019-01-28T12:59:55.991Z,2.20
2019-01-28T13:02:23.471Z,2.43
2019-01-28T13:04:50.923Z,2.70
2019-01-28T13:07:18.391Z,2.20
2019-01-28T13:09:45.799Z,2.10
2019-01-28T13:12:13.249Z,2.25
2019-01-28T13:14:40.679Z,1.20
2019-01-28T13:17:08.154Z,1.92
2019-01-28T13:19:35.643Z,2.08
2019-01-28T13:22:03.076Z,1.90
2019-01-28T13:24:30.527Z,2.07
2019-01-28T13:26:57.979Z,2.17
2019-01-28T13:29:25.432Z,2.37
2019-01-28T13:31:52.889Z,1.85
2019-01-28T13:34:20.295Z,2.20
2019-01-28T13:36:47.731Z,1.63
2019-01-28T13:39:15.184Z,2.00
2019-01-28T13:41:42.625Z,1.47
2019-01-28T13:44:10.086Z,2.15
2019-01-28T13:46:37.503Z,2.17
2019-01-28T13:49:04.957Z,1.93
2019-01-28T13:51:33.295Z,1.90
2019-01-28T13:54:00.769Z,2.00
2019-01-28T13:56:28.262Z,2.40
2019-01-28T13:58:55.688Z,2.40
2019-01-28T14:01:23.136Z,2.33
2019-01-28T14:03:50.642Z,2.70
2019-01-28T14:06:18.090Z,2.10
2019-01-28T14:08:45.545Z,2.20
2019-01-28T14:11:12.970Z,2.60
2019-01-28T14:13:40.413Z,2.50
2019-01-28T14:16:07.885Z,2.40
2019-01-28T14:18:35.324Z,2.40
2019-01-28T14:21:02.770Z,2.40
2019-01-28T14:23:30.221Z,1.53
2019-01-28T14:25:57.653Z,2.37
2019-01-28T14:28:25.087Z,2.40
2019-01-28T14:30:52.569Z,2.35
2019-01-28T14:33:20.044Z,1.95
2019-01-28T14:35:47.510Z,1.30
2019-01-28T14:38:14.943Z,1.52
2019-01-28T14:40:42.396Z,1.52
2019-01-28T14:43:09.835Z,1.83
2019-01-28T14:45:37.274Z,2.30
2019-01-28T14:48:04.742Z,2.27
2019-01-28T14:50:34.001Z,2.30
2019-01-28T14:53:01.475Z,2.20
2019-01-28T14:55:28.915Z,2.00
2019-01-28T14:57:56.331Z,1.93
2019-01-28T15:00:26.715Z,2.20
2019-01-28T15:02:54.164Z,2.20
2019-01-28T15:05:21.598Z,1.93
2019-01-28T15:07:49.057Z,1.40
2019-01-28T15:10:17.573Z,2.40
2019-01-28T15:12:45.095Z,2.40
2019-01-28T15:15:20.832Z,2.40
2019-01-28T15:17:48.332Z,2.23
2019-01-28T15:20:15.766Z,2.40
2019-01-28T15:22:43.207Z,2.53
2019-01-28T15:25:10.664Z,1.57
2019-01-28T15:27:38.142Z,2.03
2019-01-28T15:30:06.515Z,2.87
2019-01-28T15:32:35.525Z,2.43
2019-01-28T15:35:03.079Z,2.50
2019-01-28T15:37:30.548Z,2.80
2019-01-28T15:39:57.992Z,2.50
2019-01-28T15:42:25.425Z,2.80
2019-01-28T15:44:52.834Z,3.00
2019-01-28T15:47:21.266Z,3.00
2019-01-28T15:49:48.810Z,2.77
2019-01-28T15:52:16.268Z,2.60
2019-01-28T15:54:43.765Z,2.45
2019-01-28T15:57:11.235Z,1.37
2019-01-28T15:59:38.670Z,2.73
2019-01-28T16:02:06.129Z,1.90
2019-01-28T16:04:34.170Z,3.10
2019-01-28T16:07:01.609Z,2.47
2019-01-28T16:09:30.700Z,2.78
2019-01-28T16:14:38.468Z,2.43
2019-01-28T16:17:06.417Z,2.83
2019-01-28T16:19:34.579Z,3.10
2019-01-28T16:22:02.054Z,2.83
2019-01-28T16:24:29.650Z,2.70
2019-01-28T16:26:57.208Z,2.33
2019-01-28T16:29:24.658Z,2.60
2019-01-28T16:31:53.123Z,1.35
2019-01-28T16:34:20.616Z,2.33
2019-01-28T16:36:48.162Z,2.70
2019-01-28T16:39:15.661Z,2.67
2019-01-28T16:41:45.262Z,3.15
2019-01-28T16:44:14.361Z,2.35
2019-01-28T16:46:43.981Z,2.53
2019-01-28T16:49:13.167Z,2.55
2019-01-28T16:51:42.130Z,2.67
2019-01-28T16:54:14.599Z,3.67
2019-01-28T16:56:44.785Z,2.15
2019-01-28T16:59:15.421Z,3.10
2019-01-28T17:01:45.542Z,3.42
2019-01-28T17:04:14.789Z,4.30
2019-01-28T17:06:43.627Z,4.10
2019-01-28T17:09:12.736Z,3.80
2019-01-28T17:11:41.888Z,5.97
2019-01-28T17:14:11.490Z,4.17
2019-01-28T17:16:39.014Z,4.77
2019-01-28T17:19:06.475Z,3.63
2019-01-28T17:21:34.012Z,3.50
2019-01-28T17:24:01.529Z,3.30
2019-01-28T17:26:29.026Z,3.37
2019-01-28T17:28:56.548Z,3.20
2019-01-28T17:31:23.991Z,3.22
2019-01-28T17:33:51.487Z,3.50
2019-01-28T17:36:18.998Z,3.50
2019-01-28T17:38:47.458Z,3.10
2019-01-28T17:41:14.903Z,3.00
2019-01-28T17:43:43.246Z,3.15
2019-01-28T17:46:10.742Z,2.93
2019-01-28T17:48:38.251Z,3.03
2019-01-28T17:51:05.703Z,2.90
2019-01-28T17:53:33.177Z,2.90
2019-01-28T17:56:00.698Z,2.90
2019-01-28T17:58:28.200Z,2.78
2019-01-28T18:00:55.719Z,2.60
2019-01-28T18:03:23.191Z,3.10
2019-01-28T18:05:50.673Z,3.07
2019-01-28T18:08:18.221Z,2.77
2019-01-28T18:10:45.710Z,3.17
2019-01-28T18:13:14.027Z,4.00
2019-01-28T18:15:42.585Z,3.13
2019-01-28T18:18:10.127Z,2.90
2019-01-28T18:20:37.635Z,3.03
2019-01-28T18:23:05.113Z,2.80
2019-01-28T18:25:35.434Z,3.07
2019-01-28T18:28:02.922Z,2.90
2019-01-28T18:30:49.618Z,3.10
2019-01-28T18:33:17.061Z,2.70
2019-01-28T18:35:44.530Z,2.57
2019-01-28T18:38:11.984Z,2.63
2019-01-28T18:40:39.457Z,2.80
2019-01-28T18:43:06.913Z,2.90
2019-01-28T18:45:39.328Z,3.35
2019-01-28T18:48:08.569Z,2.57
2019-01-28T18:50:41.589Z,2.63
2019-01-28T18:53:12.095Z,2.57
2019-01-28T18:55:47.331Z,2.77
2019-01-28T18:58:15.222Z,2.97
2019-01-28T19:00:45.867Z,2.93
2019-01-28T19:03:15.052Z,2.90
2019-01-28T19:05:59.072Z,3.40
2019-01-28T19:08:42.737Z,2.80
2019-01-28T19:11:23.933Z,2.70
2019-01-28T19:14:06.155Z,2.47
2019-01-28T19:16:38.868Z,3.07
2019-01-28T19:19:07.549Z,5.17
2019-01-28T19:22:02.261Z,2.47
2019-01-28T19:24:51.246Z,2.42
2019-01-28T19:27:27.890Z,2.28
2019-01-28T19:29:57.264Z,2.50
2019-01-28T19:32:28.122Z,2.27
2019-01-28T19:35:05.550Z,2.57
2019-01-28T19:37:45.385Z,2.30
2019-01-28T19:40:21.731Z,2.27
2019-01-28T19:42:50.019Z,2.12
2019-01-28T19:45:17.805Z,2.37
2019-01-28T19:54:20.063Z,2.20
2019-01-28T20:06:19.807Z,3.00
2019-01-28T20:14:58.706Z,3.30
2019-01-28T20:17:49.075Z,3.10
2019-01-28T20:20:29.972Z,2.72
2019-01-28T20:22:58.755Z,3.10
2019-01-28T20:25:35.627Z,2.92
2019-01-28T20:28:02.293Z,2.60
2019-01-28T20:30:30.087Z,2.62
2019-01-28T20:33:16.333Z,3.37
2019-01-28T20:36:06.009Z,3.10
2019-01-28T20:44:36.009Z,3.90
2019-01-28T20:47:09.514Z,2.97
2019-01-28T20:55:59.601Z,3.60
2019-01-28T21:01:37.026Z,3.60
2019-01-28T21:04:08.571Z,3.35
2019-01-28T21:12:26.080Z,2.75
2019-01-28T21:14:54.085Z,2.70
2019-01-28T21:17:21.627Z,2.97
2019-01-28T21:19:49.100Z,2.90
2019-01-28T21:22:16.866Z,3.25
2019-01-28T21:24:45.091Z,3.07
2019-01-28T21:32:37.267Z,3.17
2019-01-28T21:35:27.688Z,3.50
2019-01-28T21:38:26.777Z,4.27
2019-01-28T21:40:57.895Z,4.42
2019-01-28T21:43:25.438Z,3.90
2019-01-28T21:46:10.398Z,4.27
2019-01-28T21:48:56.670Z,4.87
2019-01-28T21:57:30.273Z,4.87
2019-01-28T22:15:39.727Z,5.03
2019-01-28T22:18:12.807Z,6.87
2019-01-28T22:20:42.809Z,5.67
2019-01-28T22:26:25.338Z,6.28
2019-01-28T22:29:01.920Z,8.68
2019-01-28T22:31:34.833Z,7.73
2019-01-28T22:34:04.038Z,7.60
2019-01-28T22:36:31.674Z,7.95
2019-01-28T22:42:05.504Z,7.67
2019-01-28T22:44:37.326Z,6.57
2019-01-28T22:47:05.656Z,6.20
2019-01-28T22:49:34.297Z,6.23
2019-01-28T22:52:07.727Z,6.43
2019-01-28T22:54:31.826Z,4.80
2019-01-28T22:57:00.024Z,5.60
2019-01-28T22:59:28.719Z,5.28
2019-01-28T23:01:57.715Z,4.67
2019-01-28T23:04:27.011Z,4.40
2019-01-28T23:06:55.524Z,4.25
2019-01-28T23:09:23.121Z,4.00
2019-01-28T23:11:50.541Z,4.77
2019-01-28T23:14:18.030Z,4.30
2019-01-28T23:16:46.582Z,5.00
2019-01-28T23:19:19.056Z,4.43
2019-01-28T23:21:48.883Z,4.73
2019-01-28T23:24:17.727Z,4.50
2019-01-28T23:26:46.160Z,4.23
2019-01-28T23:29:38.893Z,4.07
2019-01-28T23:32:07.953Z,5.37
2019-01-28T23:34:36.892Z,5.72
2019-01-28T23:37:07.313Z,5.73
2019-01-28T23:39:35.906Z,5.47
2019-01-28T23:42:03.607Z,5.43
2019-01-28T23:44:31.133Z,6.67
2019-01-28T23:46:58.572Z,6.97
2019-01-28T23:49:26.083Z,8.80
2019-01-28T23:51:57.300Z,7.60
2019-01-28T23:54:25.495Z,6.37
2019-01-28T23:56:56.143Z,7.05
2019-01-28T23:59:25.842Z,7.87
